To NAV CANADA Home Page Login to a new session Search on AWWS site Disclaimer Vers la page française équivalente Tips FAQ What's new on the site To the Forecasts and Observations / NOTAM section To "File a Flight Plan" website Publications and other links Update of the User's profile FIC Telephone Numbers My Weather Data Folder Route Weather Data Regional Weather Data Local Weather Data To the Forecasts and Observations / NOTAM section
Request Generated 12/03/2021 at 10:49:36 UTC . Weather information available at that time is displayed.


Go to a specific product

Save this request

NOTAM

NOTAM


SIGMET
To the Product Selector

SIGMETS GFACN32

GFACN32 - No SIGMET bulletins in effect



AIRMET
To the Product Selector

AIRMETS GFACN32

WACN32 CWEG 030932
AIRMET B1 VALID 030930/031330 CWEG-
CZEG EDMONTON FIR SFC VIS 1/4-3SM FZFG/BR - BKN CLD 200-600/4000FT OBS WI 60NM
WID LINE BTN /N4951 W11432/45 E CYXC - /N4930 W11110/30 SW CYXH STNR INTSF
RMK GFACN32
END/WACN22/CWAO



PIREP
To the Product Selector

FIR_WINNIPEG (WG)

WG - PIREP not available



METAR/TAF
To the Product Selector

REGINA INTL/SK    

METAR CYQR 031000Z 26012KT 15SM BKN110 M04/M08 A3010 RMK AC7 SLP228=
METAR CYQR 030900Z 28013KT 15SM BKN100 M03/M08 A3009 RMK AC7 SLP222=
METAR CYQR 030800Z 28012KT 15SM BKN120 M04/M08 A3007 RMK AC7 SLP215=

TAF CYQR 030542Z 0306/0406 30015G25KT P6SM SCT100 TEMPO 0306/0312
BKN100
FM031200 29015G25KT P6SM SKC
BECMG 0321/0323 29012KT
RMK NXT FCST BY 031200Z=

MOOSE JAW/AIR VICE MARSHAL C.M. MCEWEN/SK    

METAR CYMJ 031000Z 24012G18KT 15SM OVC091 M03/M08 A3013 RMK AC8 FST OBS SLP231=

TAF AMD CYMJ 022358Z 0300/0312 CNL
RMK END OF FLY PROGRAM. NXT FCST BY 031110Z=


RADAR PCPN RATE
To the Product Selector
Pacific Canada      Western Canada     

SATELLITE VISIBLE
To the Product Selector
West Canada      

SATELLITE INFRARED
To the Product Selector
West Canada     

GRAPHICAL FA CLOUDS & WEATHER FORECASTS
To the Product Selector
Graphical FA gfacn32      

GRAPHICAL FA ICING, TURBULENCE & FREEZING LEVEL FORECASTS
To the Product Selector
Graphical FA gfacn32      

FDTEXT Low Level FD. Temperatures are not forecast for the 3,000-foot level.
To the Product Selector
STN YQR - REGINA. SASK for use 3000 6000 9000 12000 18000
FDCN01 CWAO FCST BASED ON 030000 DATA VALID 030600 05-09 3128-07 3150-12 2843-19 2965-33
FDCN02 CWAO FCST BASED ON 030000 DATA VALID 031200 09-18 3133-11 3154-16 2966-22 2875-32
FDCN03 CWAO FCST BASED ON 030000 DATA VALID 040000 18-05 3131-11 3137-18 3041-25 2969-36



Your time UTC time
Weather data provided by Environment Canada and NAV CANADA